createdAt,value
2023-07-06T00:02:14.817Z,12.05
2023-07-06T00:05:19.262Z,12.08
2023-07-06T00:08:24.462Z,11.82
2023-07-06T00:11:34.706Z,11.79
2023-07-06T00:14:39.338Z,11.77
2023-07-06T00:17:43.226Z,11.74
2023-07-06T00:20:50.798Z,11.81
2023-07-06T00:23:56.661Z,11.70
2023-07-06T00:27:00.533Z,11.63
2023-07-06T00:30:17.025Z,11.65
2023-07-06T00:33:22.543Z,11.59
2023-07-06T00:36:26.911Z,11.65
2023-07-06T00:39:32.090Z,11.55
2023-07-06T00:42:40.879Z,11.48
2023-07-06T00:45:50.415Z,11.34
2023-07-06T00:48:56.645Z,11.40
2023-07-06T00:52:02.099Z,11.40
2023-07-06T00:55:10.667Z,11.39
2023-07-06T00:58:23.652Z,11.36
2023-07-06T01:01:27.982Z,11.27
2023-07-06T01:04:32.743Z,11.24
2023-07-06T01:07:42.095Z,11.26
2023-07-06T01:10:49.477Z,11.30
2023-07-06T01:13:55.289Z,11.32
2023-07-06T01:17:09.782Z,11.35
2023-07-06T01:20:29.345Z,11.35
2023-07-06T01:24:12.594Z,11.40
2023-07-06T01:28:02.327Z,11.45
2023-07-06T01:31:37.705Z,11.53
2023-07-06T01:34:50.218Z,11.51
2023-07-06T01:37:56.225Z,11.56
2023-07-06T01:41:01.131Z,11.63
2023-07-06T01:44:05.774Z,11.61
2023-07-06T01:47:12.399Z,11.60
2023-07-06T01:50:20.136Z,11.62
2023-07-06T01:53:39.355Z,11.57
2023-07-06T01:56:52.426Z,11.61
2023-07-06T02:00:06.200Z,11.61
2023-07-06T02:03:13.576Z,11.58
2023-07-06T02:06:18.555Z,11.59
2023-07-06T02:09:24.082Z,11.57
2023-07-06T02:12:27.979Z,11.56
2023-07-06T02:15:32.746Z,11.60
2023-07-06T02:18:38.330Z,11.56
2023-07-06T02:21:42.829Z,11.57
2023-07-06T02:24:46.937Z,11.63
2023-07-06T02:27:50.874Z,11.61
2023-07-06T02:30:55.346Z,11.62
2023-07-06T02:34:00.932Z,11.59
2023-07-06T02:37:05.558Z,11.53
2023-07-06T02:40:12.492Z,11.53
2023-07-06T02:43:16.857Z,11.50
2023-07-06T02:46:21.079Z,11.47
2023-07-06T02:49:26.450Z,11.40
2023-07-06T02:52:30.443Z,11.38
2023-07-06T02:55:34.459Z,11.32
2023-07-06T02:58:38.383Z,11.32
2023-07-06T03:01:42.172Z,11.22
2023-07-06T03:04:47.892Z,11.23
2023-07-06T03:07:52.999Z,11.18
2023-07-06T03:10:57.238Z,11.14
2023-07-06T03:14:03.946Z,11.09
2023-07-06T03:17:08.760Z,11.09
2023-07-06T03:20:15.991Z,11.08
2023-07-06T03:23:20.051Z,11.05
2023-07-06T03:26:25.519Z,11.04
2023-07-06T03:29:32.125Z,11.04
2023-07-06T03:32:39.191Z,11.06
2023-07-06T03:35:44.756Z,11.04
2023-07-06T03:38:50.821Z,11.01
2023-07-06T03:41:54.847Z,11.05
2023-07-06T03:44:59.074Z,11.10
2023-07-06T03:48:03.167Z,11.33
2023-07-06T03:51:09.767Z,11.34
2023-07-06T03:54:13.562Z,11.51
2023-07-06T03:57:18.518Z,11.69
2023-07-06T04:00:23.098Z,11.87
2023-07-06T04:03:27.607Z,11.64
2023-07-06T04:06:32.958Z,11.52
2023-07-06T04:09:37.632Z,11.60
2023-07-06T04:12:41.509Z,11.44
2023-07-06T04:15:50.459Z,11.51
2023-07-06T04:18:54.486Z,11.50
2023-07-06T04:22:00.052Z,11.55
2023-07-06T04:25:04.005Z,11.72
2023-07-06T04:28:12.007Z,12.13
2023-07-06T04:31:16.817Z,12.29
2023-07-06T04:34:22.861Z,12.23
2023-07-06T04:37:28.753Z,12.51
2023-07-06T04:40:32.670Z,12.79
2023-07-06T04:43:36.487Z,12.83
2023-07-06T04:46:41.466Z,13.44
2023-07-06T04:49:46.524Z,13.41
2023-07-06T04:52:54.809Z,13.73
2023-07-06T04:56:01.252Z,13.96
2023-07-06T04:59:05.417Z,13.86
2023-07-06T05:02:09.362Z,14.15
2023-07-06T05:05:14.056Z,14.61
2023-07-06T05:08:23.192Z,14.00
2023-07-06T05:11:27.737Z,14.26
2023-07-06T05:14:32.548Z,14.40
2023-07-06T05:17:37.346Z,14.12
2023-07-06T05:20:42.102Z,13.81
2023-07-06T05:23:47.610Z,14.01
2023-07-06T05:26:51.530Z,13.88
2023-07-06T05:29:55.317Z,14.20
2023-07-06T05:32:59.316Z,14.32
2023-07-06T05:36:03.868Z,14.37
2023-07-06T05:39:09.942Z,14.08
2023-07-06T05:42:14.391Z,14.39
2023-07-06T05:45:18.430Z,14.54
2023-07-06T05:48:22.278Z,14.36
2023-07-06T05:51:26.182Z,14.10
2023-07-06T05:54:31.397Z,13.90
2023-07-06T05:57:35.319Z,14.75
2023-07-06T06:00:41.232Z,15.10
2023-07-06T06:03:46.555Z,14.98
2023-07-06T06:06:55.606Z,15.53
2023-07-06T06:10:01.340Z,15.75
2023-07-06T06:13:05.332Z,15.81
2023-07-06T06:16:10.231Z,16.26
2023-07-06T06:19:14.111Z,15.97
2023-07-06T06:22:19.961Z,16.10
2023-07-06T06:25:25.350Z,16.12
2023-07-06T06:28:29.268Z,16.62
2023-07-06T06:31:33.931Z,16.89
2023-07-06T06:34:38.046Z,17.08
2023-07-06T06:37:42.002Z,16.60
2023-07-06T06:40:47.236Z,16.60
2023-07-06T06:43:51.269Z,17.41
2023-07-06T06:46:55.094Z,16.95
2023-07-06T06:49:59.137Z,16.88
2023-07-06T06:53:03.991Z,17.14
2023-07-06T06:56:10.801Z,16.94
2023-07-06T06:59:14.780Z,16.91
2023-07-06T07:02:18.888Z,16.86
2023-07-06T07:05:22.772Z,16.74
2023-07-06T07:08:26.638Z,16.82
2023-07-06T07:11:31.943Z,17.17
2023-07-06T07:14:35.848Z,17.21
2023-07-06T07:17:40.226Z,17.14
2023-07-06T07:20:44.903Z,17.36
2023-07-06T07:23:51.035Z,17.27
2023-07-06T07:26:56.375Z,17.76
2023-07-06T07:30:00.236Z,17.57
2023-07-06T07:33:05.064Z,17.67
2023-07-06T07:36:10.657Z,18.03
2023-07-06T07:39:15.807Z,17.48
2023-07-06T07:42:21.283Z,17.09
2023-07-06T07:45:25.434Z,17.55
2023-07-06T07:48:31.272Z,17.77
2023-07-06T07:51:35.064Z,17.59
2023-07-06T07:54:38.883Z,17.48
2023-07-06T07:57:45.679Z,17.82
2023-07-06T08:00:54.090Z,17.79
2023-07-06T08:03:58.711Z,17.88
2023-07-06T08:07:02.572Z,18.02
2023-07-06T08:10:09.915Z,17.90
2023-07-06T08:13:15.068Z,18.63
2023-07-06T08:16:21.518Z,18.95
2023-07-06T08:19:46.859Z,19.28
2023-07-06T08:22:49.444Z,19.67
2023-07-06T08:25:53.649Z,19.62
2023-07-06T08:28:59.030Z,18.96
2023-07-06T08:32:05.013Z,19.42
2023-07-06T08:35:10.334Z,19.88
2023-07-06T08:38:15.397Z,19.53
2023-07-06T08:41:31.071Z,20.14
2023-07-06T08:44:37.382Z,19.78
2023-07-06T08:47:41.378Z,20.96
2023-07-06T08:50:53.311Z,20.38
2023-07-06T08:54:02.810Z,20.01
2023-07-06T08:57:16.903Z,19.98
2023-07-06T09:00:26.960Z,20.13
2023-07-06T09:03:38.715Z,20.52
2023-07-06T09:06:51.015Z,19.69
2023-07-06T09:10:06.959Z,19.16
2023-07-06T09:13:27.628Z,18.68
2023-07-06T09:16:38.046Z,18.49
2023-07-06T09:19:43.412Z,18.58
2023-07-06T09:22:49.518Z,18.59
2023-07-06T09:25:57.675Z,18.44
2023-07-06T09:29:21.028Z,18.85
2023-07-06T09:32:26.381Z,18.76
2023-07-06T09:35:32.565Z,18.96
2023-07-06T09:38:46.804Z,19.12
2023-07-06T09:41:52.431Z,18.97
2023-07-06T09:44:57.301Z,18.77
2023-07-06T09:48:09.707Z,18.97
2023-07-06T09:51:23.295Z,18.72
2023-07-06T09:54:35.476Z,19.09
2023-07-06T09:57:41.420Z,19.33
2023-07-06T10:00:58.212Z,19.00
2023-07-06T10:04:28.672Z,18.74
2023-07-06T10:07:46.972Z,19.09
2023-07-06T10:11:10.904Z,18.70
2023-07-06T10:14:28.078Z,19.18
2023-07-06T10:17:38.774Z,20.18
2023-07-06T10:20:55.174Z,20.41
2023-07-06T10:24:14.244Z,20.02
2023-07-06T10:27:27.091Z,19.78
2023-07-06T10:30:38.161Z,19.68
2023-07-06T10:33:58.406Z,18.75
2023-07-06T10:37:07.347Z,18.34
2023-07-06T10:40:22.228Z,18.72
2023-07-06T10:43:28.623Z,18.22
2023-07-06T10:46:36.719Z,18.05
2023-07-06T10:50:28.838Z,18.07
2023-07-06T10:53:41.078Z,17.82
2023-07-06T10:56:49.629Z,17.77
2023-07-06T11:00:06.312Z,17.60
2023-07-06T11:03:18.068Z,17.01
2023-07-06T11:06:55.601Z,17.07
2023-07-06T11:10:46.266Z,17.29
2023-07-06T11:13:54.774Z,17.17
2023-07-06T11:17:06.043Z,17.41
2023-07-06T11:20:23.485Z,17.35
2023-07-06T11:23:37.964Z,17.27
2023-07-06T11:26:50.330Z,17.67
2023-07-06T11:30:02.944Z,17.84
2023-07-06T11:33:19.523Z,18.12
2023-07-06T11:36:39.217Z,18.25
2023-07-06T11:39:59.605Z,18.78
2023-07-06T11:43:30.077Z,19.01
2023-07-06T11:46:51.154Z,19.50
2023-07-06T11:49:58.157Z,19.79
2023-07-06T11:53:10.776Z,19.76
2023-07-06T11:56:34.152Z,19.78
2023-07-06T11:59:41.907Z,19.68
2023-07-06T12:02:54.955Z,19.92
2023-07-06T12:06:01.758Z,20.21
2023-07-06T12:09:08.106Z,20.26
2023-07-06T12:12:24.607Z,20.53
2023-07-06T12:15:30.905Z,20.94
2023-07-06T12:18:36.116Z,20.85
2023-07-06T12:21:44.768Z,20.98
2023-07-06T12:24:48.818Z,20.82
2023-07-06T12:27:58.885Z,20.55
2023-07-06T12:31:05.579Z,20.40
2023-07-06T12:34:10.125Z,20.39
2023-07-06T12:37:18.292Z,20.54
2023-07-06T12:40:26.584Z,20.80
2023-07-06T12:43:35.312Z,20.69
2023-07-06T12:47:19.310Z,21.10
2023-07-06T12:50:27.869Z,20.74
2023-07-06T12:53:35.248Z,20.30
2023-07-06T12:56:42.236Z,20.27
2023-07-06T12:59:46.118Z,20.20
2023-07-06T13:02:59.398Z,20.21
2023-07-06T13:06:03.348Z,20.02
2023-07-06T13:09:09.123Z,19.76
2023-07-06T13:12:22.249Z,19.59
2023-07-06T13:15:30.109Z,19.64
2023-07-06T13:18:35.617Z,19.77
2023-07-06T13:21:41.994Z,19.89
2023-07-06T13:24:47.677Z,19.75
2023-07-06T13:27:52.561Z,20.05
2023-07-06T13:30:56.999Z,19.85
2023-07-06T13:34:02.375Z,19.40
2023-07-06T13:37:16.197Z,19.31
2023-07-06T13:40:22.298Z,18.89
2023-07-06T13:43:26.042Z,18.81
2023-07-06T13:46:32.590Z,18.37
2023-07-06T13:49:37.865Z,18.27
2023-07-06T13:52:42.647Z,18.18
2023-07-06T13:55:52.001Z,17.86
2023-07-06T13:58:56.139Z,18.05
2023-07-06T14:02:04.001Z,18.21
2023-07-06T14:05:15.010Z,18.04
2023-07-06T14:08:20.290Z,18.23
2023-07-06T14:11:24.082Z,19.58
2023-07-06T14:14:27.858Z,19.63
2023-07-06T14:17:33.574Z,19.58
2023-07-06T14:20:42.020Z,19.63
2023-07-06T14:23:45.850Z,19.13
2023-07-06T14:26:49.722Z,19.16
2023-07-06T14:29:54.267Z,19.72
2023-07-06T14:32:59.717Z,19.97
2023-07-06T14:36:05.190Z,20.60
2023-07-06T14:39:09.633Z,20.53
2023-07-06T14:42:15.282Z,20.44
2023-07-06T14:45:19.371Z,20.44
2023-07-06T14:48:23.328Z,20.49
2023-07-06T14:51:28.602Z,20.16
2023-07-06T14:54:32.789Z,20.17
2023-07-06T14:57:37.055Z,20.11
2023-07-06T15:00:41.108Z,20.22
2023-07-06T15:03:45.234Z,19.55
2023-07-06T15:06:50.457Z,19.41
2023-07-06T15:09:54.651Z,19.69
2023-07-06T15:12:58.757Z,19.82
2023-07-06T15:16:03.005Z,20.66
2023-07-06T15:19:07.605Z,20.55
2023-07-06T15:22:12.948Z,20.82
2023-07-06T15:25:16.835Z,20.55
2023-07-06T15:28:21.019Z,20.64
2023-07-06T15:31:27.764Z,20.54
2023-07-06T15:34:34.486Z,20.65
2023-07-06T15:37:41.222Z,20.56
2023-07-06T15:40:52.223Z,20.86
2023-07-06T15:43:56.612Z,20.45
2023-07-06T15:47:00.695Z,20.91
2023-07-06T15:50:04.993Z,20.69
2023-07-06T15:53:12.044Z,20.71
2023-07-06T15:56:17.073Z,20.34
2023-07-06T15:59:22.353Z,20.57
2023-07-06T16:02:28.699Z,21.34
2023-07-06T16:05:33.106Z,21.20
2023-07-06T16:08:38.502Z,20.95
2023-07-06T16:11:42.881Z,21.16
2023-07-06T16:14:47.148Z,21.08
2023-07-06T16:17:51.298Z,21.11
2023-07-06T16:21:02.623Z,21.35
2023-07-06T16:24:08.474Z,20.99
2023-07-06T16:27:12.219Z,21.07
2023-07-06T16:30:20.825Z,20.63
2023-07-06T16:33:24.632Z,20.62
2023-07-06T16:36:28.549Z,20.71
2023-07-06T16:39:33.803Z,21.15
2023-07-06T16:42:37.728Z,21.21
2023-07-06T16:45:41.732Z,20.99
2023-07-06T16:48:45.693Z,20.87
2023-07-06T16:51:49.698Z,20.85
2023-07-06T16:54:55.145Z,20.96
2023-07-06T16:57:59.058Z,21.10
2023-07-06T17:01:07.888Z,20.61
2023-07-06T17:04:11.936Z,20.61
2023-07-06T17:07:15.913Z,20.44
2023-07-06T17:10:21.609Z,20.38
2023-07-06T17:13:25.372Z,20.25
2023-07-06T17:16:29.601Z,20.05
2023-07-06T17:19:33.607Z,20.06
2023-07-06T17:22:37.716Z,20.08
2023-07-06T17:25:43.296Z,20.05
2023-07-06T17:28:47.609Z,20.18
2023-07-06T17:31:51.534Z,20.27
2023-07-06T17:34:55.601Z,20.41
2023-07-06T17:38:00.289Z,20.49
2023-07-06T17:41:09.411Z,20.36
2023-07-06T17:44:13.661Z,20.26
2023-07-06T17:47:17.520Z,20.04
2023-07-06T17:50:21.897Z,20.15
2023-07-06T17:53:26.529Z,20.13
2023-07-06T17:56:31.827Z,19.93
2023-07-06T17:59:35.738Z,20.00
2023-07-06T18:02:39.809Z,20.01
2023-07-06T18:05:48.372Z,19.86
2023-07-06T18:08:52.625Z,19.75
2023-07-06T18:11:57.935Z,19.64
2023-07-06T18:15:03.559Z,19.76
2023-07-06T18:18:07.648Z,19.76
2023-07-06T18:21:11.939Z,19.59
2023-07-06T18:24:16.296Z,19.55
2023-07-06T18:27:21.644Z,19.51
2023-07-06T18:30:25.700Z,19.37
2023-07-06T18:33:29.784Z,19.27
2023-07-06T18:36:33.837Z,19.20
2023-07-06T18:39:39.950Z,19.20
2023-07-06T18:42:45.498Z,19.18
2023-07-06T18:45:49.477Z,19.19
2023-07-06T18:48:53.265Z,19.07
2023-07-06T18:51:57.085Z,18.90
2023-07-06T18:55:01.132Z,18.71
2023-07-06T18:58:06.632Z,18.75
2023-07-06T19:01:12.480Z,18.69
2023-07-06T19:04:16.942Z,18.60
2023-07-06T19:07:20.853Z,18.56
2023-07-06T19:10:25.205Z,18.51
2023-07-06T19:13:30.556Z,18.46
2023-07-06T19:16:35.358Z,18.35
2023-07-06T19:19:39.225Z,18.23
2023-07-06T19:22:53.309Z,18.14
2023-07-06T19:26:00.866Z,18.04
2023-07-06T19:29:06.296Z,17.93
2023-07-06T19:32:17.216Z,17.81
2023-07-06T19:35:21.936Z,17.65
2023-07-06T19:38:25.921Z,17.54
2023-07-06T19:41:30.068Z,17.35
2023-07-06T19:44:35.310Z,17.25
2023-07-06T19:47:39.723Z,17.15
2023-07-06T19:50:43.565Z,17.08
2023-07-06T19:53:48.237Z,16.94
2023-07-06T19:56:52.022Z,16.86
2023-07-06T19:59:57.402Z,16.75
2023-07-06T20:03:01.772Z,16.57
2023-07-06T20:06:06.698Z,16.52
2023-07-06T20:09:10.441Z,16.47
2023-07-06T20:12:17.745Z,16.43
2023-07-06T20:15:23.841Z,16.34
2023-07-06T20:18:28.176Z,16.29
2023-07-06T20:21:31.896Z,16.21
2023-07-06T20:24:36.148Z,16.10
2023-07-06T20:27:39.998Z,15.99
2023-07-06T20:30:46.675Z,15.99
2023-07-06T20:33:50.806Z,15.93
2023-07-06T20:36:54.814Z,15.88
2023-07-06T20:39:58.764Z,15.81
2023-07-06T20:43:02.782Z,15.72
2023-07-06T20:46:08.292Z,15.65
2023-07-06T20:49:12.446Z,15.58
2023-07-06T20:52:17.210Z,15.54
2023-07-06T20:55:21.123Z,15.47
2023-07-06T20:58:25.110Z,15.44
2023-07-06T21:01:30.603Z,15.33
2023-07-06T21:04:34.421Z,15.23
2023-07-06T21:07:38.168Z,15.15
2023-07-06T21:10:42.852Z,15.12
2023-07-06T21:13:46.874Z,15.07
2023-07-06T21:16:52.296Z,15.07
2023-07-06T21:19:56.256Z,15.07
2023-07-06T21:23:00.456Z,15.04
2023-07-06T21:26:04.354Z,15.08
2023-07-06T21:29:11.284Z,15.11
2023-07-06T21:32:16.698Z,15.12
2023-07-06T21:35:20.776Z,15.16
2023-07-06T21:38:24.642Z,15.15
2023-07-06T21:41:28.434Z,15.14
2023-07-06T21:44:32.634Z,15.09
2023-07-06T21:47:39.158Z,15.03
2023-07-06T21:50:43.110Z,14.97
2023-07-06T21:53:46.904Z,14.92
2023-07-06T21:56:50.643Z,14.88
2023-07-06T21:59:54.575Z,14.84
2023-07-06T22:02:59.945Z,14.79
2023-07-06T22:06:07.035Z,14.71
2023-07-06T22:09:10.942Z,14.63
2023-07-06T22:12:14.778Z,14.62
2023-07-06T22:15:29.572Z,14.58
2023-07-06T22:18:39.924Z,14.55
2023-07-06T22:21:43.901Z,14.53
2023-07-06T22:24:47.732Z,14.48
2023-07-06T22:27:51.735Z,14.41
2023-07-06T22:31:00.482Z,14.25
2023-07-06T22:34:06.139Z,14.22
2023-07-06T22:37:10.001Z,14.13
2023-07-06T22:40:14.422Z,14.06
2023-07-06T22:43:18.779Z,14.03
2023-07-06T22:46:23.688Z,13.98
2023-07-06T22:49:30.802Z,13.93
2023-07-06T22:52:34.811Z,13.90
2023-07-06T22:55:40.147Z,13.85
2023-07-06T22:58:43.898Z,13.83
2023-07-06T23:01:48.072Z,13.79
2023-07-06T23:04:54.282Z,13.70
2023-07-06T23:07:59.738Z,13.64
2023-07-06T23:11:04.433Z,13.59
2023-07-06T23:14:10.556Z,13.59
2023-07-06T23:17:15.314Z,13.55
2023-07-06T23:20:21.844Z,13.58
2023-07-06T23:23:26.694Z,13.51
2023-07-06T23:26:34.789Z,13.47
2023-07-06T23:29:38.839Z,13.40
2023-07-06T23:32:49.742Z,13.38
2023-07-06T23:35:55.450Z,13.37
2023-07-06T23:39:00.297Z,13.40
2023-07-06T23:42:04.567Z,13.42
2023-07-06T23:45:10.477Z,13.44
2023-07-06T23:48:14.411Z,13.45
2023-07-06T23:51:23.344Z,13.42
2023-07-06T23:54:27.899Z,13.33
2023-07-06T23:57:31.879Z,13.26
